createdAt,value
2018-11-29T00:01:53.425Z,15.27
2018-11-29T00:04:21.071Z,14.80
2018-11-29T00:06:48.658Z,15.43
2018-11-29T00:09:16.217Z,14.97
2018-11-29T00:11:43.742Z,15.83
2018-11-29T00:14:11.375Z,15.13
2018-11-29T00:16:39.037Z,15.00
2018-11-29T00:19:06.611Z,15.60
2018-11-29T00:21:34.235Z,14.20
2018-11-29T00:24:01.694Z,14.70
2018-11-29T00:26:29.272Z,15.33
2018-11-29T00:28:56.736Z,16.57
2018-11-29T00:31:24.189Z,14.13
2018-11-29T00:33:51.759Z,15.77
2018-11-29T00:36:19.428Z,15.10
2018-11-29T00:38:46.882Z,15.47
2018-11-29T00:41:14.425Z,16.30
2018-11-29T00:43:42.019Z,15.37
2018-11-29T00:46:09.526Z,16.03
2018-11-29T00:48:37.162Z,15.10
2018-11-29T00:51:05.281Z,15.00
2018-11-29T00:53:32.797Z,17.03
2018-11-29T00:56:00.285Z,16.27
2018-11-29T00:58:27.756Z,15.90
2018-11-29T01:00:55.309Z,15.27
2018-11-29T01:03:22.963Z,14.30
2018-11-29T01:05:50.432Z,14.70
2018-11-29T01:08:17.999Z,15.10
2018-11-29T01:10:45.437Z,14.13
2018-11-29T01:13:13.032Z,15.13
2018-11-29T01:15:40.490Z,14.80
2018-11-29T01:18:08.037Z,14.90
2018-11-29T01:20:35.512Z,13.47
2018-11-29T01:23:03.045Z,14.20
2018-11-29T01:25:30.606Z,14.27
2018-11-29T01:27:58.137Z,14.67
2018-11-29T01:30:25.556Z,13.80
2018-11-29T01:32:53.130Z,14.30
2018-11-29T01:35:20.640Z,16.30
2018-11-29T01:37:48.443Z,15.83
2018-11-29T01:40:19.505Z,14.77
2018-11-29T01:42:50.504Z,14.80
2018-11-29T01:45:18.005Z,13.70
2018-11-29T01:47:45.468Z,12.93
2018-11-29T01:50:13.062Z,13.43
2018-11-29T01:52:40.524Z,13.00
2018-11-29T01:55:08.750Z,14.00
2018-11-29T01:57:36.276Z,14.27
2018-11-29T02:00:04.647Z,14.60
2018-11-29T02:02:32.185Z,13.90
2018-11-29T02:04:59.723Z,14.53
2018-11-29T02:07:27.295Z,13.83
2018-11-29T02:10:00.462Z,14.50
2018-11-29T02:12:28.043Z,14.33
2018-11-29T02:14:55.501Z,14.10
2018-11-29T02:17:23.025Z,14.00
2018-11-29T02:19:50.500Z,13.50
2018-11-29T02:22:17.947Z,13.40
2018-11-29T02:24:45.384Z,14.07
2018-11-29T02:27:12.928Z,13.83
2018-11-29T02:29:40.430Z,14.80
2018-11-29T02:32:07.929Z,14.07
2018-11-29T02:34:35.675Z,12.20
2018-11-29T02:37:03.233Z,13.13
2018-11-29T02:39:30.723Z,14.50
2018-11-29T02:41:58.348Z,15.07
2018-11-29T02:44:25.930Z,13.93
2018-11-29T02:46:53.495Z,13.20
2018-11-29T02:49:21.068Z,14.03
2018-11-29T02:51:48.578Z,14.27
2018-11-29T02:54:16.055Z,12.63
2018-11-29T02:56:43.571Z,13.47
2018-11-29T02:59:11.160Z,14.27
2018-11-29T03:01:38.603Z,15.73
2018-11-29T03:04:06.138Z,13.53
2018-11-29T03:06:33.592Z,12.00
2018-11-29T03:09:01.229Z,12.50
2018-11-29T03:11:28.794Z,13.43
2018-11-29T03:13:56.322Z,12.43
2018-11-29T03:16:23.927Z,13.30
2018-11-29T03:18:51.382Z,13.20
2018-11-29T03:21:19.008Z,13.87
2018-11-29T03:23:46.590Z,13.73
2018-11-29T03:26:14.150Z,13.43
2018-11-29T03:28:41.690Z,13.40
2018-11-29T03:31:09.320Z,14.23
2018-11-29T03:33:36.872Z,13.07
2018-11-29T03:36:04.634Z,13.50
2018-11-29T03:38:32.305Z,14.67
2018-11-29T03:41:00.098Z,14.10
2018-11-29T03:43:27.677Z,14.97
2018-11-29T03:45:55.209Z,13.77
2018-11-29T03:48:22.800Z,14.17
2018-11-29T03:50:50.338Z,14.50
2018-11-29T03:53:17.956Z,12.97
2018-11-29T03:55:45.480Z,13.50
2018-11-29T03:58:13.080Z,14.87
2018-11-29T04:00:40.700Z,14.43
2018-11-29T04:03:08.395Z,13.60
2018-11-29T04:05:35.997Z,14.90
2018-11-29T04:08:03.567Z,15.37
2018-11-29T04:10:31.223Z,13.30
2018-11-29T04:12:58.825Z,12.93
2018-11-29T04:15:26.457Z,12.10
2018-11-29T04:17:53.949Z,13.17
2018-11-29T04:20:21.418Z,13.40
2018-11-29T04:22:48.937Z,13.93
2018-11-29T04:25:16.516Z,13.97
2018-11-29T04:27:44.285Z,14.07
2018-11-29T04:30:14.045Z,13.50
2018-11-29T04:32:41.613Z,12.13
2018-11-29T04:35:09.787Z,12.30
2018-11-29T04:37:37.643Z,13.30
2018-11-29T04:40:07.717Z,13.07
2018-11-29T04:42:35.406Z,12.40
2018-11-29T04:45:03.433Z,13.77
2018-11-29T04:47:31.010Z,12.87
2018-11-29T04:49:58.639Z,13.80
2018-11-29T04:52:26.208Z,12.80
2018-11-29T04:54:53.727Z,13.00
2018-11-29T04:57:21.255Z,13.33
2018-11-29T04:59:48.721Z,11.70
2018-11-29T05:02:16.337Z,12.77
2018-11-29T05:04:44.009Z,13.13
2018-11-29T05:07:11.624Z,13.87
2018-11-29T05:09:39.285Z,12.10
2018-11-29T05:12:07.043Z,13.03
2018-11-29T05:14:34.747Z,13.00
2018-11-29T05:17:02.340Z,13.73
2018-11-29T05:19:29.995Z,13.03
2018-11-29T05:21:57.581Z,12.83
2018-11-29T05:24:25.211Z,11.97
2018-11-29T05:26:52.740Z,13.70
2018-11-29T05:29:20.213Z,11.50
2018-11-29T05:31:47.760Z,11.90
2018-11-29T05:34:15.362Z,12.10
2018-11-29T05:36:42.972Z,12.03
2018-11-29T05:39:10.540Z,12.37
2018-11-29T05:41:38.138Z,12.73
2018-11-29T05:44:05.670Z,12.47
2018-11-29T05:46:33.458Z,12.33
2018-11-29T05:49:01.046Z,11.37
2018-11-29T05:51:28.610Z,12.13
2018-11-29T05:53:56.412Z,11.73
2018-11-29T05:56:23.940Z,13.07
2018-11-29T05:58:51.568Z,11.17
2018-11-29T06:01:25.030Z,12.10
2018-11-29T06:03:52.688Z,11.97
2018-11-29T06:06:21.350Z,11.47
2018-11-29T06:08:48.799Z,10.73
2018-11-29T06:11:16.554Z,12.73
2018-11-29T06:13:44.188Z,12.90
2018-11-29T06:16:12.046Z,12.83
2018-11-29T06:18:39.723Z,11.83
2018-11-29T06:21:07.269Z,11.70
2018-11-29T06:23:34.924Z,11.27
2018-11-29T06:26:02.505Z,13.17
2018-11-29T06:28:30.022Z,11.50
2018-11-29T06:30:57.613Z,12.67
2018-11-29T06:33:25.114Z,12.30
2018-11-29T06:35:52.860Z,13.03
2018-11-29T06:38:20.553Z,12.00
2018-11-29T06:40:48.253Z,13.37
2018-11-29T06:43:16.097Z,13.03
2018-11-29T06:45:43.940Z,13.63
2018-11-29T06:48:11.776Z,12.80
2018-11-29T06:50:39.452Z,12.07
2018-11-29T06:53:12.618Z,12.33
2018-11-29T06:55:40.404Z,11.87
2018-11-29T06:58:08.027Z,12.67
2018-11-29T07:00:35.738Z,11.23
2018-11-29T07:03:03.355Z,12.60
2018-11-29T07:05:30.953Z,13.37
2018-11-29T07:07:58.501Z,12.37
2018-11-29T07:10:31.539Z,12.27
2018-11-29T07:12:59.397Z,11.90
2018-11-29T07:15:26.951Z,11.93
2018-11-29T07:17:54.658Z,11.63
2018-11-29T07:20:22.449Z,12.33
2018-11-29T07:22:50.157Z,11.77
2018-11-29T07:25:17.749Z,11.97
2018-11-29T07:27:45.219Z,11.70
2018-11-29T07:30:14.936Z,13.33
2018-11-29T07:32:42.460Z,11.30
2018-11-29T07:35:11.306Z,10.97
2018-11-29T07:37:38.995Z,11.10
2018-11-29T07:40:08.041Z,11.07
2018-11-29T07:42:35.592Z,10.53
2018-11-29T07:45:03.326Z,11.83
2018-11-29T07:47:30.966Z,11.63
2018-11-29T07:49:58.567Z,11.33
2018-11-29T07:52:26.175Z,11.43
2018-11-29T07:54:53.760Z,11.13
2018-11-29T07:57:21.415Z,11.00
2018-11-29T07:59:48.993Z,12.63
2018-11-29T08:02:16.468Z,11.00
2018-11-29T08:04:44.146Z,10.93
2018-11-29T08:07:11.718Z,10.73
2018-11-29T08:09:39.322Z,11.00
2018-11-29T08:12:07.051Z,10.33
2018-11-29T08:14:34.621Z,10.10
2018-11-29T08:17:02.262Z,10.17
2018-11-29T08:19:29.766Z,10.63
2018-11-29T08:21:57.360Z,9.00
2018-11-29T08:24:25.021Z,10.00
2018-11-29T08:26:52.618Z,10.83
2018-11-29T08:29:20.126Z,10.17
2018-11-29T08:31:47.562Z,8.17
2018-11-29T08:34:15.126Z,8.07
2018-11-29T08:36:42.768Z,8.47
2018-11-29T08:39:10.214Z,8.87
2018-11-29T08:41:37.850Z,8.47
2018-11-29T08:44:05.616Z,8.90
2018-11-29T08:46:33.279Z,9.33
2018-11-29T08:49:00.962Z,9.40
2018-11-29T08:51:28.454Z,7.83
2018-11-29T08:53:56.219Z,8.33
2018-11-29T08:56:23.825Z,8.20
2018-11-29T08:58:51.406Z,8.50
2018-11-29T09:01:18.993Z,8.47
2018-11-29T09:03:46.529Z,7.77
2018-11-29T09:06:14.068Z,8.93
2018-11-29T09:08:41.602Z,10.23
2018-11-29T09:11:09.202Z,10.37
2018-11-29T09:13:36.687Z,9.73
2018-11-29T09:16:04.278Z,10.70
2018-11-29T09:18:31.767Z,9.27
2018-11-29T09:20:59.344Z,8.33
2018-11-29T09:23:26.944Z,8.20
2018-11-29T09:25:54.683Z,8.23
2018-11-29T09:28:22.129Z,8.80
2018-11-29T09:30:49.740Z,8.73
2018-11-29T09:33:17.437Z,7.80
2018-11-29T09:35:44.994Z,7.57
2018-11-29T09:38:12.630Z,7.43
2018-11-29T09:40:40.095Z,8.27
2018-11-29T09:43:07.716Z,8.47
2018-11-29T09:45:35.208Z,8.40
2018-11-29T09:48:03.766Z,7.80
2018-11-29T09:50:31.271Z,8.73
2018-11-29T09:52:58.722Z,8.40
2018-11-29T09:55:26.203Z,8.13
2018-11-29T09:57:53.938Z,8.07
2018-11-29T10:01:02.497Z,8.70
2018-11-29T10:03:33.392Z,7.70
2018-11-29T10:06:01.103Z,9.57
2018-11-29T10:08:28.594Z,8.23
2018-11-29T10:10:56.417Z,7.83
2018-11-29T10:13:24.054Z,7.80
2018-11-29T10:15:51.523Z,8.30
2018-11-29T10:18:19.193Z,8.67
2018-11-29T10:20:46.868Z,9.23
2018-11-29T10:23:14.535Z,8.17
2018-11-29T10:25:42.115Z,8.60
2018-11-29T10:28:10.596Z,8.67
2018-11-29T10:30:53.951Z,8.53
2018-11-29T10:33:21.690Z,9.03
2018-11-29T10:35:49.181Z,8.37
2018-11-29T10:38:16.785Z,8.40
2018-11-29T10:40:45.075Z,9.00
2018-11-29T10:43:12.655Z,8.03
2018-11-29T10:45:40.176Z,8.43
2018-11-29T10:48:09.673Z,8.33
2018-11-29T10:50:37.162Z,8.10
2018-11-29T10:53:05.433Z,8.37
2018-11-29T10:55:33.025Z,8.50
2018-11-29T10:58:00.565Z,7.70
2018-11-29T11:00:33.231Z,8.33
2018-11-29T11:03:32.779Z,8.37
2018-11-29T11:06:00.287Z,8.80
2018-11-29T11:08:28.011Z,8.07
2018-11-29T11:10:55.611Z,8.90
2018-11-29T11:13:23.171Z,8.03
2018-11-29T11:15:50.633Z,8.10
2018-11-29T11:18:18.381Z,8.13
2018-11-29T11:20:46.067Z,9.50
2018-11-29T11:23:13.623Z,8.60
2018-11-29T11:25:41.279Z,8.47
2018-11-29T11:28:09.645Z,8.40
2018-11-29T11:30:38.185Z,9.10
2018-11-29T11:33:05.949Z,8.17
2018-11-29T11:35:33.673Z,7.87
2018-11-29T11:38:01.359Z,7.83
2018-11-29T11:40:28.959Z,7.80
2018-11-29T11:42:56.450Z,7.80
2018-11-29T11:45:24.093Z,8.33
2018-11-29T11:47:51.605Z,8.43
2018-11-29T11:50:20.772Z,9.63
2018-11-29T11:52:48.470Z,8.53
2018-11-29T11:55:18.960Z,7.83
2018-11-29T11:57:45.494Z,8.77
2018-11-29T12:00:16.418Z,7.87
2018-11-29T12:02:44.377Z,9.73
2018-11-29T12:05:12.082Z,8.13
2018-11-29T12:07:39.752Z,8.20
2018-11-29T12:10:10.797Z,8.10
2018-11-29T12:12:38.443Z,7.93
2018-11-29T12:15:08.045Z,7.63
2018-11-29T12:17:35.677Z,7.47
2018-11-29T12:20:03.810Z,10.23
2018-11-29T12:22:31.265Z,7.97
2018-11-29T12:24:58.829Z,9.00
2018-11-29T12:27:26.361Z,8.03
2018-11-29T12:29:53.878Z,8.63
2018-11-29T12:32:21.477Z,7.93
2018-11-29T12:34:49.108Z,7.93
2018-11-29T12:37:16.656Z,8.13
2018-11-29T12:39:44.216Z,8.83
2018-11-29T12:42:11.780Z,8.80
2018-11-29T12:44:39.436Z,9.57
2018-11-29T12:47:06.963Z,9.37
2018-11-29T12:49:36.181Z,8.13
2018-11-29T12:52:03.711Z,8.80
2018-11-29T12:54:31.360Z,8.90
2018-11-29T12:56:59.032Z,8.83
2018-11-29T12:59:26.571Z,10.80
2018-11-29T13:01:54.318Z,11.07
2018-11-29T13:04:22.079Z,11.97
2018-11-29T13:06:49.568Z,10.40
2018-11-29T13:09:17.190Z,8.70
2018-11-29T13:11:45.194Z,8.77
2018-11-29T13:14:12.928Z,10.80
2018-11-29T13:16:40.415Z,10.90
2018-11-29T13:19:07.991Z,9.80
2018-11-29T13:21:35.467Z,11.23
2018-11-29T13:24:03.357Z,10.43
2018-11-29T13:26:30.858Z,11.23
2018-11-29T13:28:58.516Z,11.37
2018-11-29T13:31:26.194Z,12.30
2018-11-29T13:33:53.730Z,11.80
2018-11-29T13:36:21.402Z,11.17
2018-11-29T13:38:49.044Z,11.13
2018-11-29T13:41:16.613Z,12.43
2018-11-29T13:43:44.190Z,13.23
2018-11-29T13:46:11.927Z,12.33
2018-11-29T13:48:39.553Z,12.60
2018-11-29T13:51:07.120Z,12.57
2018-11-29T13:53:34.705Z,12.17
2018-11-29T13:56:02.259Z,13.60
2018-11-29T13:58:29.758Z,14.73
2018-11-29T14:00:57.296Z,13.50
2018-11-29T14:03:24.841Z,13.60
2018-11-29T14:05:52.367Z,13.20
2018-11-29T14:08:19.961Z,13.93
2018-11-29T14:10:47.599Z,13.17
2018-11-29T14:13:15.125Z,13.57
2018-11-29T14:15:42.797Z,13.87
2018-11-29T14:18:10.310Z,12.83
2018-11-29T14:20:37.884Z,13.13
2018-11-29T14:23:05.508Z,12.90
2018-11-29T14:25:33.131Z,12.83
2018-11-29T14:28:00.739Z,14.33
2018-11-29T14:30:29.438Z,13.17
2018-11-29T14:32:58.267Z,13.87
2018-11-29T14:35:26.572Z,13.77
2018-11-29T14:37:54.160Z,13.90
2018-11-29T14:40:22.830Z,12.63
2018-11-29T14:42:50.378Z,13.03
2018-11-29T14:45:19.058Z,12.73
2018-11-29T14:47:46.498Z,12.87
2018-11-29T14:50:19.438Z,13.30
2018-11-29T14:52:47.244Z,13.20
2018-11-29T14:55:14.761Z,14.23
2018-11-29T14:57:42.352Z,14.67
2018-11-29T15:00:11.316Z,14.30
2018-11-29T15:02:38.964Z,14.13
2018-11-29T15:05:13.980Z,13.87
2018-11-29T15:07:41.620Z,14.30
2018-11-29T15:10:09.780Z,13.07
2018-11-29T15:12:38.532Z,14.27
2018-11-29T15:15:09.907Z,13.17
2018-11-29T15:17:38.511Z,12.50
2018-11-29T15:20:10.174Z,12.27
2018-11-29T15:22:37.689Z,13.27
2018-11-29T15:25:06.478Z,13.97
2018-11-29T15:27:34.089Z,13.40
2018-11-29T15:30:01.626Z,13.90
2018-11-29T15:32:29.307Z,13.23
2018-11-29T15:34:57.710Z,14.70
2018-11-29T15:37:25.202Z,12.70
2018-11-29T15:39:52.710Z,14.40
2018-11-29T15:42:20.292Z,15.50
2018-11-29T15:44:48.110Z,13.73
2018-11-29T15:47:15.814Z,14.50
2018-11-29T15:49:43.337Z,15.37
2018-11-29T15:52:13.356Z,13.50
2018-11-29T15:54:40.988Z,12.80
2018-11-29T15:57:09.422Z,12.60
2018-11-29T15:59:37.178Z,13.20
2018-11-29T16:02:04.882Z,12.97
2018-11-29T16:04:33.572Z,13.03
2018-11-29T16:07:01.138Z,12.93
2018-11-29T16:09:28.615Z,13.90
2018-11-29T16:11:56.268Z,14.30
2018-11-29T16:14:24.057Z,13.77
2018-11-29T16:16:51.652Z,13.90
2018-11-29T16:19:19.362Z,14.57
2018-11-29T16:21:46.854Z,12.63
2018-11-29T16:24:14.541Z,13.47
2018-11-29T16:26:42.009Z,13.70
2018-11-29T16:29:09.520Z,13.20
2018-11-29T16:31:37.194Z,13.60
2018-11-29T16:34:04.819Z,12.93
2018-11-29T16:36:32.408Z,12.97
2018-11-29T16:38:59.899Z,13.37
2018-11-29T16:41:27.535Z,13.17
2018-11-29T16:43:55.153Z,12.83
2018-11-29T16:46:26.567Z,14.10
2018-11-29T16:48:54.131Z,15.10
2018-11-29T16:51:21.849Z,13.60
2018-11-29T16:53:49.521Z,12.80
2018-11-29T16:56:17.111Z,13.13
2018-11-29T16:58:44.917Z,12.40
2018-11-29T17:01:12.585Z,13.67
2018-11-29T17:03:40.152Z,12.93
2018-11-29T17:06:07.752Z,13.07
2018-11-29T17:08:35.258Z,14.03
2018-11-29T17:11:03.022Z,12.73
2018-11-29T17:13:30.618Z,13.53
2018-11-29T17:15:58.189Z,13.20
2018-11-29T17:18:26.358Z,11.77
2018-11-29T17:20:53.844Z,13.30
2018-11-29T17:23:21.482Z,14.30
2018-11-29T17:25:49.096Z,13.17
2018-11-29T17:28:16.766Z,13.40
2018-11-29T17:30:48.220Z,13.83
2018-11-29T17:33:15.866Z,13.30
2018-11-29T17:35:43.760Z,14.40
2018-11-29T17:38:11.382Z,14.03
2018-11-29T17:40:38.917Z,13.60
2018-11-29T17:43:07.670Z,12.67
2018-11-29T17:45:35.500Z,13.07
2018-11-29T17:48:07.804Z,13.47
2018-11-29T17:50:36.853Z,13.67
2018-11-29T17:53:05.144Z,13.80
2018-11-29T17:55:32.677Z,13.83
2018-11-29T17:58:00.395Z,13.93
2018-11-29T18:00:30.889Z,13.93
2018-11-29T18:02:58.533Z,12.77
2018-11-29T18:05:26.110Z,14.80
2018-11-29T18:07:53.851Z,13.03
2018-11-29T18:10:21.985Z,13.77
2018-11-29T18:12:52.174Z,13.87
2018-11-29T18:15:21.468Z,14.47
2018-11-29T18:17:49.026Z,14.30
2018-11-29T18:20:16.737Z,12.90
2018-11-29T18:22:44.448Z,15.03
2018-11-29T18:25:12.711Z,14.33
2018-11-29T18:27:41.145Z,15.10
2018-11-29T18:30:13.226Z,14.73
2018-11-29T18:32:40.983Z,15.70
2018-11-29T18:35:10.059Z,15.37
2018-11-29T18:37:37.662Z,15.20
2018-11-29T18:40:17.583Z,15.37
2018-11-29T18:42:51.052Z,14.53
2018-11-29T18:45:19.257Z,14.20
2018-11-29T18:47:48.519Z,14.90
2018-11-29T18:50:18.202Z,15.40
2018-11-29T18:52:48.865Z,15.73
2018-11-29T18:55:17.119Z,15.13
2018-11-29T18:57:44.658Z,17.47
2018-11-29T19:00:16.719Z,15.43
2018-11-29T19:02:44.479Z,14.63
2018-11-29T19:05:12.459Z,14.53
2018-11-29T19:07:40.131Z,15.90
2018-11-29T19:10:10.304Z,14.93
2018-11-29T19:12:38.778Z,13.70
2018-11-29T19:15:08.080Z,15.17
2018-11-29T19:17:35.883Z,13.63
2018-11-29T19:22:53.024Z,14.87
2018-11-29T19:25:20.877Z,15.40
2018-11-29T19:27:49.637Z,16.37
2018-11-29T19:30:21.318Z,18.20
2018-11-29T19:32:51.715Z,18.50
2018-11-29T19:35:19.489Z,15.47
2018-11-29T19:37:47.146Z,16.13
2018-11-29T19:40:15.859Z,16.47
2018-11-29T19:42:44.674Z,16.57
2018-11-29T19:45:14.490Z,16.50
2018-11-29T19:47:42.727Z,15.07
2018-11-29T19:50:14.010Z,15.10
2018-11-29T19:52:42.650Z,15.60
2018-11-29T19:55:12.052Z,16.23
2018-11-29T19:57:39.596Z,15.10
2018-11-29T20:00:11.281Z,15.63
2018-11-29T20:02:38.826Z,14.73
2018-11-29T20:05:07.992Z,14.33
2018-11-29T20:07:35.654Z,13.93
2018-11-29T20:10:03.868Z,13.53
2018-11-29T20:12:31.531Z,16.70
2018-11-29T20:14:59.230Z,15.23
2018-11-29T20:17:26.839Z,14.23
2018-11-29T20:19:54.374Z,15.50
2018-11-29T20:22:22.816Z,14.63
2018-11-29T20:24:50.465Z,14.33
2018-11-29T20:27:18.064Z,14.37
2018-11-29T20:29:45.911Z,14.90
2018-11-29T20:32:13.918Z,16.63
2018-11-29T20:34:41.567Z,14.00
2018-11-29T20:37:09.240Z,14.70
2018-11-29T20:39:37.795Z,13.53
2018-11-29T20:42:05.510Z,14.97
2018-11-29T20:44:33.299Z,15.17
2018-11-29T20:47:00.962Z,14.57
2018-11-29T20:49:28.550Z,15.10
2018-11-29T20:51:56.259Z,15.13
2018-11-29T20:54:24.064Z,14.90
2018-11-29T20:56:53.025Z,15.50
2018-11-29T20:59:20.600Z,15.00
2018-11-29T21:01:48.464Z,15.23
2018-11-29T21:04:16.190Z,15.47
2018-11-29T21:06:43.825Z,15.43
2018-11-29T21:09:15.600Z,14.53
2018-11-29T21:11:47.790Z,16.60
2018-11-29T21:14:11.069Z,15.63
2018-11-29T21:16:38.968Z,14.60
2018-11-29T21:19:06.781Z,14.77
2018-11-29T21:21:36.367Z,15.03
2018-11-29T21:24:04.669Z,13.90
2018-11-29T21:26:32.579Z,14.40
2018-11-29T21:29:00.487Z,16.13
2018-11-29T21:31:28.120Z,15.93
2018-11-29T21:33:55.878Z,15.33
2018-11-29T21:36:24.197Z,15.60
2018-11-29T21:38:51.661Z,15.33
2018-11-29T21:41:19.407Z,15.10
2018-11-29T21:43:46.960Z,14.30
2018-11-29T21:46:15.039Z,14.90
2018-11-29T21:48:43.369Z,15.20
2018-11-29T21:51:11.089Z,15.03
2018-11-29T21:53:38.729Z,15.00
2018-11-29T21:56:06.764Z,15.37
2018-11-29T21:58:34.844Z,14.53
2018-11-29T22:01:03.230Z,14.90
2018-11-29T22:03:31.160Z,15.07
2018-11-29T22:05:59.137Z,15.17
2018-11-29T22:08:27.071Z,15.00
2018-11-29T22:10:55.037Z,15.27
2018-11-29T22:13:23.501Z,15.97
2018-11-29T22:15:51.515Z,14.27
2018-11-29T22:18:22.415Z,14.83
2018-11-29T22:20:53.045Z,14.13
2018-11-29T22:23:21.036Z,15.17
2018-11-29T22:25:50.023Z,15.10
2018-11-29T22:28:20.640Z,15.27
2018-11-29T22:30:49.062Z,15.10
2018-11-29T22:33:17.023Z,15.97
2018-11-29T22:35:44.836Z,15.33
2018-11-29T22:38:12.982Z,16.30
2018-11-29T22:40:41.525Z,15.27
2018-11-29T22:43:09.479Z,15.53
2018-11-29T22:45:37.096Z,15.70
2018-11-29T22:48:04.844Z,15.87
2018-11-29T22:50:32.564Z,15.23
2018-11-29T22:53:00.287Z,16.20
2018-11-29T22:55:28.146Z,16.27
2018-11-29T22:57:55.852Z,15.60
2018-11-29T23:00:23.417Z,16.27
2018-11-29T23:02:51.118Z,15.13
2018-11-29T23:05:18.838Z,15.73
2018-11-29T23:07:46.658Z,16.20
2018-11-29T23:10:15.053Z,15.63
2018-11-29T23:12:42.814Z,14.83
2018-11-29T23:15:11.722Z,14.90
2018-11-29T23:17:39.470Z,14.93
2018-11-29T23:20:08.271Z,15.03
2018-11-29T23:22:36.920Z,15.90
2018-11-29T23:25:06.493Z,15.10
2018-11-29T23:27:34.087Z,16.53
2018-11-29T23:30:01.813Z,15.63
2018-11-29T23:32:29.416Z,15.93
2018-11-29T23:34:57.179Z,15.23
2018-11-29T23:37:25.110Z,15.60
2018-11-29T23:39:52.676Z,16.03
2018-11-29T23:42:20.438Z,15.20
2018-11-29T23:44:47.915Z,16.33
2018-11-29T23:47:15.702Z,15.67
2018-11-29T23:49:43.339Z,15.57
2018-11-29T23:52:11.024Z,15.70
2018-11-29T23:54:38.745Z,15.80
2018-11-29T23:57:06.272Z,15.67
2018-11-29T23:59:34.684Z,14.67
